Time;durP1;ratioP1;P1;durP2;ratioP2;P2;SDS_P1;SDS_P2;PMS_P1;PMS_P2;Temp;Humidity;BMP_temperature;BMP_pressure;BME280_temperature;BME280_humidity;BME280_pressure;Samples;Min_cycle;Max_cycle;Signal;HPM_P1;HPM_P2
2022/11/29 00:01:44;;;;;;;19.02;12.80;;;;;;;;;;5029349;28;20042;-80
2022/11/29 00:04:11;;;;;;;18.75;13.85;;;;;;;;;;5029736;28;20038;-80
2022/11/29 00:06:39;;;;;;;15.00;11.55;;;;;;;;;;5011807;28;20171;-80
2022/11/29 00:09:07;;;;;;;18.25;13.85;;;;;;;;;;5013699;28;20096;-80
2022/11/29 00:14:22;;;;;;;15.70;12.30;;;;;;;;;;5031743;28;20049;-80
2022/11/29 00:16:51;;;;;;;19.60;13.82;;;;;;;;;;5035544;28;20050;-81
2022/11/29 00:19:18;;;;;;;18.40;13.23;;;;;;;;;;5035027;28;20048;-81
2022/11/29 00:21:46;;;;;;;17.58;12.85;;;;;;;;;;5028478;28;20052;-81
2022/11/29 00:24:13;;;;;;;16.50;12.77;;;;;;;;;;5031356;28;20040;-80
2022/11/29 00:26:41;;;;;;;17.95;13.25;;;;;;;;;;5035180;28;20120;-80
2022/11/29 00:29:10;;;;;;;18.00;13.18;;;;;;;;;;5029301;28;20079;-81
2022/11/29 00:31:37;;;;;;;19.73;13.07;;;;;;;;;;5026259;28;20040;-80
2022/11/29 00:34:05;;;;;;;25.35;13.93;;;;;;;;;;5025727;28;20554;-80
2022/11/29 00:36:34;;;;;;;20.45;13.23;;;;;;;;;;5000991;28;20104;-79
2022/11/29 00:39:01;;;;;;;30.05;14.77;;;;;;;;;;5015136;28;20038;-80
2022/11/29 00:41:29;;;;;;;31.73;16.77;;;;;;;;;;5025438;28;20033;-80
2022/11/29 00:43:56;;;;;;;22.90;15.23;;;;;;;;;;5029657;28;20061;-80
2022/11/29 00:46:24;;;;;;;22.75;13.70;;;;;;;;;;5020589;28;20042;-79
2022/11/29 00:48:51;;;;;;;20.02;13.55;;;;;;;;;;5019657;28;20131;-79
2022/11/29 00:51:18;;;;;;;21.13;13.23;;;;;;;;;;5038294;28;20041;-79
2022/11/29 00:53:46;;;;;;;20.25;12.93;;;;;;;;;;5050460;28;20047;-79
2022/11/29 00:56:13;;;;;;;21.90;15.23;;;;;;;;;;5042547;28;20386;-79
2022/11/29 00:58:42;;;;;;;20.83;14.00;;;;;;;;;;5047580;28;20083;-80
2022/11/29 01:01:10;;;;;;;17.08;13.05;;;;;;;;;;5031300;28;20048;-80
2022/11/29 01:03:38;;;;;;;23.67;15.93;;;;;;;;;;5025319;28;20048;-79
2022/11/29 01:06:07;;;;;;;18.95;13.73;;;;;;;;;;5042047;28;20068;-80
2022/11/29 01:08:34;;;;;;;19.35;13.38;;;;;;;;;;5010114;28;20123;-79
2022/11/29 01:11:03;;;;;;;15.90;12.13;;;;;;;;;;5012508;28;20100;-79
2022/11/29 01:13:30;;;;;;;21.70;15.88;;;;;;;;;;5036628;28;20091;-80
2022/11/29 01:15:57;;;;;;;24.38;15.02;;;;;;;;;;5045401;28;20037;-81
2022/11/29 01:18:25;;;;;;;22.25;14.80;;;;;;;;;;5049982;28;20052;-81
2022/11/29 01:20:56;;;;;;;24.63;15.65;;;;;;;;;;5035272;28;20080;-81
2022/11/29 01:23:24;;;;;;;21.42;14.00;;;;;;;;;;5053387;28;20049;-81
2022/11/29 01:25:59;;;;;;;19.80;14.38;;;;;;;;;;5048818;28;20441;-81
2022/11/29 01:28:27;;;;;;;21.33;13.88;;;;;;;;;;5038686;28;20087;-82
2022/11/29 01:30:54;;;;;;;21.63;15.25;;;;;;;;;;5031803;28;20049;-79
2022/11/29 01:33:22;;;;;;;24.75;15.80;;;;;;;;;;5044309;28;20033;-79
2022/11/29 01:35:53;;;;;;;27.63;15.85;;;;;;;;;;5027127;28;20038;-80
2022/11/29 01:38:21;;;;;;;22.50;15.02;;;;;;;;;;5029357;28;20038;-80
2022/11/29 01:41:02;;;;;;;25.33;14.68;;;;;;;;;;5030205;28;20447;-80
2022/11/29 01:43:30;;;;;;;27.63;14.73;;;;;;;;;;5035734;28;20042;-80
2022/11/29 01:45:57;;;;;;;21.92;13.63;;;;;;;;;;5053234;28;20114;-80
2022/11/29 01:48:32;;;;;;;18.45;13.48;;;;;;;;;;5041553;28;20612;-80
2022/11/29 01:51:00;;;;;;;22.17;14.43;;;;;;;;;;5038184;28;20059;-79
2022/11/29 01:53:28;;;;;;;22.75;15.55;;;;;;;;;;5031716;28;20437;-80
2022/11/29 01:55:57;;;;;;;20.67;14.40;;;;;;;;;;5016262;28;20042;-81
2022/11/29 01:58:24;;;;;;;19.77;14.10;;;;;;;;;;5048794;28;20420;-79
2022/11/29 02:00:52;;;;;;;19.05;13.98;;;;;;;;;;5041102;28;20080;-81
2022/11/29 02:03:19;;;;;;;16.40;12.68;;;;;;;;;;5016766;28;20056;-79
2022/11/29 02:05:48;;;;;;;21.17;13.18;;;;;;;;;;5057289;28;20056;-80
2022/11/29 02:08:16;;;;;;;17.17;12.65;;;;;;;;;;5042430;28;20076;-80
2022/11/29 02:11:07;;;;;;;17.15;12.32;;;;;;;;;;5054131;28;20068;-79
2022/11/29 02:13:40;;;;;;;18.48;11.82;;;;;;;;;;4994830;28;20064;-80
2022/11/29 02:16:24;;;;;;;31.45;17.40;;;;;;;;;;5025175;28;20045;-80
2022/11/29 02:18:59;;;;;;;33.60;17.05;;;;;;;;;;5026993;28;20069;-79
2022/11/29 02:21:29;;;;;;;26.50;14.60;;;;;;;;;;5034767;28;20105;-80
2022/11/29 02:24:03;;;;;;;21.65;13.32;;;;;;;;;;5031525;28;20041;-80
2022/11/29 02:26:54;;;;;;;20.40;14.25;;;;;;;;;;5024803;28;20068;-80
2022/11/29 02:29:41;;;;;;;17.60;12.23;;;;;;;;;;5123462;22;20087;-74
2022/11/29 02:32:29;;;;;;;18.92;13.07;;;;;;;;;;5039678;28;20037;-73
2022/11/29 02:34:59;;;;;;;18.88;13.02;;;;;;;;;;5020936;28;20037;-73
2022/11/29 02:37:29;;;;;;;18.70;12.57;;;;;;;;;;5023960;28;20029;-73
2022/11/29 02:39:56;;;;;;;20.90;14.10;;;;;;;;;;5024756;28;20068;-73
2022/11/29 02:42:48;;;;;;;20.80;14.40;;;;;;;;;;5019068;28;20068;-73
2022/11/29 02:45:40;;;;;;;17.45;11.27;;;;;;;;;;5022383;28;20502;-73
2022/11/29 02:48:26;;;;;;;17.67;11.88;;;;;;;;;;5019602;28;20048;-73
2022/11/29 02:50:56;;;;;;;18.88;14.00;;;;;;;;;;5023648;28;20041;-74
2022/11/29 02:53:33;;;;;;;13.65;10.88;;;;;;;;;;5021128;28;20044;-74
2022/11/29 02:56:09;;;;;;;15.13;11.90;;;;;;;;;;5029346;28;20101;-73
2022/11/29 02:58:55;;;;;;;12.27;9.95;;;;;;;;;;5021444;28;20064;-73
2022/11/29 03:01:36;;;;;;;14.93;11.40;;;;;;;;;;5023600;28;20636;-74
2022/11/29 03:04:13;;;;;;;13.93;10.27;;;;;;;;;;5024245;28;20560;-73
2022/11/29 03:06:55;;;;;;;16.90;12.40;;;;;;;;;;5024291;28;20052;-73
2022/11/29 03:09:36;;;;;;;13.50;10.20;;;;;;;;;;5020074;28;20440;-73
2022/11/29 03:12:25;;;;;;;14.80;11.13;;;;;;;;;;5023433;28;20041;-74
2022/11/29 03:15:11;;;;;;;19.10;12.63;;;;;;;;;;5034840;28;20136;-74
2022/11/29 03:17:50;;;;;;;19.02;12.93;;;;;;;;;;5019681;28;20512;-73
2022/11/29 03:20:27;;;;;;;16.13;10.85;;;;;;;;;;5034453;28;20030;-74
2022/11/29 03:23:04;;;;;;;18.00;11.77;;;;;;;;;;5021729;28;20126;-75
2022/11/29 03:25:34;;;;;;;17.45;12.40;;;;;;;;;;5027579;28;20066;-75
2022/11/29 03:28:04;;;;;;;18.45;12.45;;;;;;;;;;5022142;28;20045;-74
2022/11/29 03:30:34;;;;;;;16.85;12.55;;;;;;;;;;5023462;28;20045;-74
2022/11/29 03:33:23;;;;;;;18.13;12.55;;;;;;;;;;5029608;28;20042;-74
2022/11/29 03:35:58;;;;;;;16.23;11.68;;;;;;;;;;5036652;28;20128;-73
2022/11/29 03:38:38;;;;;;;16.80;13.13;;;;;;;;;;5027822;28;20049;-75
2022/11/29 03:41:08;;;;;;;18.55;12.70;;;;;;;;;;5035032;28;20049;-75
2022/11/29 03:43:42;;;;;;;17.88;11.30;;;;;;;;;;5027187;28;20045;-74
2022/11/29 03:46:12;;;;;;;17.00;13.48;;;;;;;;;;5023434;28;20124;-75
2022/11/29 03:48:43;;;;;;;21.13;14.10;;;;;;;;;;5010382;28;20128;-75
2022/11/29 03:51:16;;;;;;;15.20;12.07;;;;;;;;;;5020145;28;20136;-74
2022/11/29 03:53:53;;;;;;;14.57;11.35;;;;;;;;;;5015510;28;20048;-74
2022/11/29 03:56:32;;;;;;;15.98;12.30;;;;;;;;;;5020982;28;20595;-75
2022/11/29 03:59:12;;;;;;;14.70;11.48;;;;;;;;;;5020506;28;20819;-75
2022/11/29 04:01:54;;;;;;;15.85;12.93;;;;;;;;;;5023677;28;20037;-76
2022/11/29 04:04:40;;;;;;;16.90;11.90;;;;;;;;;;5025978;28;20080;-73
2022/11/29 04:07:08;;;;;;;16.38;11.73;;;;;;;;;;5027941;28;20119;-75
2022/11/29 04:09:42;;;;;;;15.77;11.48;;;;;;;;;;5025547;28;20918;-74
2022/11/29 04:12:24;;;;;;;15.85;12.13;;;;;;;;;;5028641;28;20049;-74
2022/11/29 04:15:01;;;;;;;17.52;12.95;;;;;;;;;;5034843;28;20129;-73
2022/11/29 04:17:34;;;;;;;16.63;11.95;;;;;;;;;;5025932;28;20136;-74
2022/11/29 04:20:11;;;;;;;13.90;10.68;;;;;;;;;;5026964;28;20560;-75
2022/11/29 04:22:41;;;;;;;18.30;12.93;;;;;;;;;;5034727;28;20548;-76
2022/11/29 04:25:27;;;;;;;14.85;10.95;;;;;;;;;;5024301;28;20091;-75
2022/11/29 04:28:30;;;;;;;17.05;12.52;;;;;;;;;;5025140;28;20049;-75
2022/11/29 04:31:06;;;;;;;14.55;11.05;;;;;;;;;;5013753;28;20053;-75
2022/11/29 04:33:52;;;;;;;16.13;11.95;;;;;;;;;;5020857;28;20050;-75
2022/11/29 04:36:38;;;;;;;13.60;10.95;;;;;;;;;;5029388;28;20050;-75
2022/11/29 04:39:20;;;;;;;15.85;12.73;;;;;;;;;;5028749;28;20129;-75
2022/11/29 04:42:17;;;;;;;17.20;12.35;;;;;;;;;;5023305;28;20045;-75
2022/11/29 04:44:47;;;;;;;17.92;11.90;;;;;;;;;;5006510;28;20046;-74
2022/11/29 04:47:20;;;;;;;14.95;11.65;;;;;;;;;;5022518;28;20066;-74
2022/11/29 04:49:57;;;;;;;16.70;12.25;;;;;;;;;;5026257;28;20665;-75
2022/11/29 04:52:24;;;;;;;14.20;11.68;;;;;;;;;;5023778;28;20037;-74
2022/11/29 04:55:14;;;;;;;20.90;13.63;;;;;;;;;;5023260;28;20127;-75
2022/11/29 04:58:18;;;;;;;15.80;10.85;;;;;;;;;;5023716;28;20697;-75
2022/11/29 05:00:55;;;;;;;13.82;10.57;;;;;;;;;;5034022;28;20576;-76
2022/11/29 05:03:37;;;;;;;17.23;13.05;;;;;;;;;;5035327;28;20043;-75
2022/11/29 05:06:07;;;;;;;14.48;11.63;;;;;;;;;;5038103;28;20041;-75
2022/11/29 05:08:50;;;;;;;18.00;12.75;;;;;;;;;;5029443;28;20120;-75
2022/11/29 05:11:21;;;;;;;14.82;12.30;;;;;;;;;;5019909;28;20041;-75
2022/11/29 05:13:59;;;;;;;15.63;11.88;;;;;;;;;;5034123;28;20515;-74
2022/11/29 05:16:45;;;;;;;15.23;12.25;;;;;;;;;;5023519;28;20033;-74
2022/11/29 05:19:28;;;;;;;19.77;14.02;;;;;;;;;;5028742;28;20037;-74
2022/11/29 05:22:12;;;;;;;16.17;13.25;;;;;;;;;;5030383;28;20144;-75
2022/11/29 05:24:39;;;;;;;18.67;12.40;;;;;;;;;;5027518;28;20133;-75
2022/11/29 05:27:22;;;;;;;18.77;11.93;;;;;;;;;;5030827;28;20055;-75
2022/11/29 05:30:02;;;;;;;18.52;12.98;;;;;;;;;;5020218;28;20103;-74
2022/11/29 05:32:48;;;;;;;19.15;14.20;;;;;;;;;;5032919;28;20525;-75
2022/11/29 05:35:18;;;;;;;15.65;12.38;;;;;;;;;;5026963;28;20045;-74
2022/11/29 05:37:51;;;;;;;17.77;13.32;;;;;;;;;;5029413;28;20068;-74
2022/11/29 05:40:18;;;;;;;17.52;12.70;;;;;;;;;;5027863;28;20041;-74
2022/11/29 05:42:53;;;;;;;14.45;11.27;;;;;;;;;;5020819;28;20473;-75
2022/11/29 05:45:34;;;;;;;19.27;14.45;;;;;;;;;;5020758;28;20052;-75
2022/11/29 05:48:05;;;;;;;21.23;14.77;;;;;;;;;;5021642;28;20420;-75
2022/11/29 05:50:42;;;;;;;21.15;16.30;;;;;;;;;;5029892;28;21240;-73
2022/11/29 05:53:16;;;;;;;19.95;14.18;;;;;;;;;;5022504;28;20053;-75
2022/11/29 05:55:52;;;;;;;19.60;13.32;;;;;;;;;;5023642;28;20064;-75
2022/11/29 05:58:39;;;;;;;18.80;14.38;;;;;;;;;;5015899;28;20532;-76
2022/11/29 06:01:15;;;;;;;20.63;13.95;;;;;;;;;;5020989;28;20041;-74
2022/11/29 06:04:01;;;;;;;16.77;13.25;;;;;;;;;;5018832;28;20046;-74
2022/11/29 06:06:43;;;;;;;20.65;14.57;;;;;;;;;;5006094;28;20133;-75
2022/11/29 06:09:10;;;;;;;17.10;12.38;;;;;;;;;;5016185;28;20033;-74
2022/11/29 06:11:44;;;;;;;22.42;16.30;;;;;;;;;;5018744;28;20069;-73
2022/11/29 06:14:35;;;;;;;19.23;14.68;;;;;;;;;;5017677;28;20192;-76
2022/11/29 06:17:05;;;;;;;19.80;14.35;;;;;;;;;;5012415;28;20623;-75
2022/11/29 06:20:07;;;;;;;20.08;14.35;;;;;;;;;;5017977;28;20046;-76
2022/11/29 06:22:35;;;;;;;;;;;;;;;;;;4995931;28;20045;-74
2022/11/29 06:25:19;;;;;;;19.92;14.38;;;;;;;;;;5015284;28;19934;-74
2022/11/29 06:27:56;;;;;;;16.90;12.95;;;;;;;;;;5011162;28;20417;-74
2022/11/29 06:30:29;;;;;;;21.13;14.10;;;;;;;;;;5013189;28;20037;-74
2022/11/29 06:33:05;;;;;;;15.73;12.23;;;;;;;;;;5012563;28;20506;-73
2022/11/29 06:35:45;;;;;;;19.88;14.45;;;;;;;;;;5011435;28;20034;-75
2022/11/29 06:38:15;;;;;;;17.08;13.55;;;;;;;;;;5010694;28;20029;-75
2022/11/29 06:40:43;;;;;;;21.52;14.10;;;;;;;;;;5010196;28;20045;-75
2022/11/29 06:43:11;;;;;;;20.92;15.27;;;;;;;;;;5021021;28;20452;-74
2022/11/29 06:45:40;;;;;;;21.17;15.10;;;;;;;;;;5023850;28;20136;-73
2022/11/29 06:48:09;;;;;;;20.48;14.35;;;;;;;;;;5020134;28;20049;-74
2022/11/29 06:50:42;;;;;;;19.85;14.35;;;;;;;;;;5022272;28;20045;-73
2022/11/29 06:53:17;;;;;;;16.92;13.20;;;;;;;;;;5013656;28;20065;-75
2022/11/29 06:56:03;;;;;;;23.40;15.18;;;;;;;;;;5011170;28;20034;-74
2022/11/29 06:58:35;;;;;;;19.60;14.50;;;;;;;;;;5005161;28;20173;-74
2022/11/29 07:01:07;;;;;;;19.30;15.13;;;;;;;;;;5007698;28;20041;-73
2022/11/29 07:03:54;;;;;;;21.23;15.63;;;;;;;;;;5027177;28;20052;-76
2022/11/29 07:06:23;;;;;;;20.48;15.18;;;;;;;;;;5030375;28;20427;-73
2022/11/29 07:08:57;;;;;;;20.40;14.48;;;;;;;;;;5003830;28;20107;-75
2022/11/29 07:11:25;;;;;;;17.40;14.05;;;;;;;;;;5019589;28;20049;-73
2022/11/29 07:13:52;;;;;;;19.15;13.85;;;;;;;;;;5027397;28;20122;-73
2022/11/29 07:16:35;;;;;;;20.95;14.88;;;;;;;;;;5026883;28;20193;-73
2022/11/29 07:19:08;;;;;;;20.02;14.48;;;;;;;;;;5023093;28;20448;-74
2022/11/29 07:21:38;;;;;;;24.67;15.25;;;;;;;;;;5016266;28;20065;-74
2022/11/29 07:24:16;;;;;;;16.58;13.93;;;;;;;;;;5020366;28;20547;-75
2022/11/29 07:26:49;;;;;;;19.60;14.70;;;;;;;;;;5015030;28;20046;-74
2022/11/29 07:29:28;;;;;;;20.25;15.32;;;;;;;;;;5018430;28;20038;-73
2022/11/29 07:32:16;;;;;;;22.70;15.85;;;;;;;;;;5014337;28;20041;-74
2022/11/29 07:34:59;;;;;;;20.42;15.52;;;;;;;;;;5018085;28;20046;-73
2022/11/29 07:37:39;;;;;;;19.52;14.90;;;;;;;;;;5015668;28;20146;-73
2022/11/29 07:40:23;;;;;;;23.98;16.30;;;;;;;;;;5003535;28;20125;-71
2022/11/29 07:43:09;;;;;;;24.63;17.48;;;;;;;;;;5012753;28;20038;-73
2022/11/29 07:45:37;;;;;;;25.38;16.98;;;;;;;;;;5024833;28;20045;-73
2022/11/29 07:48:05;;;;;;;19.85;15.48;;;;;;;;;;5018834;28;20045;-71
2022/11/29 07:50:37;;;;;;;22.40;16.48;;;;;;;;;;5027049;28;20375;-74
2022/11/29 07:53:05;;;;;;;21.23;16.75;;;;;;;;;;5024286;28;20055;-74
2022/11/29 07:55:34;;;;;;;24.38;18.05;;;;;;;;;;5020086;28;20045;-74
2022/11/29 07:58:01;;;;;;;22.58;16.48;;;;;;;;;;5029060;28;20395;-74
2022/11/29 08:00:28;;;;;;;22.05;16.63;;;;;;;;;;5013167;28;20099;-73
2022/11/29 08:02:56;;;;;;;23.92;16.50;;;;;;;;;;5023186;28;20694;-73
2022/11/29 08:05:24;;;;;;;23.02;16.92;;;;;;;;;;5011846;28;20080;-73
2022/11/29 08:07:52;;;;;;;20.60;16.17;;;;;;;;;;5017751;28;21023;-73
2022/11/29 08:10:19;;;;;;;24.20;17.80;;;;;;;;;;5018457;28;20055;-73
2022/11/29 08:12:48;;;;;;;23.60;16.95;;;;;;;;;;5012561;28;20075;-74
2022/11/29 08:15:17;;;;;;;22.20;16.80;;;;;;;;;;5002239;28;20506;-73
2022/11/29 08:17:44;;;;;;;24.02;17.00;;;;;;;;;;4994885;28;20303;-74
2022/11/29 08:20:13;;;;;;;28.75;20.88;;;;;;;;;;5029588;28;20037;-72
2022/11/29 08:22:40;;;;;;;25.80;16.83;;;;;;;;;;5018966;28;20034;-73
2022/11/29 08:25:08;;;;;;;24.00;16.98;;;;;;;;;;5040971;28;20048;-73
2022/11/29 08:27:36;;;;;;;23.38;17.77;;;;;;;;;;5031815;28;20123;-73
2022/11/29 08:33:01;;;;;;;27.88;18.85;;;;;;;;;;5059632;28;20098;-70
2022/11/29 08:35:29;;;;;;;24.35;17.65;;;;;;;;;;5046893;28;20040;-71
2022/11/29 08:37:56;;;;;;;20.95;16.10;;;;;;;;;;5051756;28;20110;-71
2022/11/29 08:40:24;;;;;;;23.58;18.02;;;;;;;;;;5028521;28;20037;-71
2022/11/29 08:42:51;;;;;;;22.77;16.52;;;;;;;;;;5041090;28;20040;-72
2022/11/29 08:45:18;;;;;;;28.27;18.45;;;;;;;;;;5045727;28;20044;-71
2022/11/29 08:47:46;;;;;;;26.15;17.85;;;;;;;;;;5045393;28;20045;-72
2022/11/29 08:50:15;;;;;;;27.75;22.23;;;;;;;;;;5048393;28;20138;-72
2022/11/29 08:55:41;;;;;;;20.63;17.35;;;;;;;;;;5031148;28;20127;-71
2022/11/29 08:58:10;;;;;;;24.08;17.33;;;;;;;;;;5046758;28;20062;-71
2022/11/29 09:00:38;;;;;;;24.58;17.80;;;;;;;;;;5044653;28;20515;-71
2022/11/29 09:05:52;;;;;;;21.67;14.90;;;;;;;;;;5037548;28;20534;-70
2022/11/29 09:08:20;;;;;;;32.15;26.13;;;;;;;;;;5027012;28;20099;-71
2022/11/29 09:10:48;;;;;;;23.92;17.15;;;;;;;;;;5039747;28;20102;-71
2022/11/29 09:13:16;;;;;;;20.58;15.65;;;;;;;;;;5027875;28;20057;-71
2022/11/29 09:15:44;;;;;;;26.67;17.65;;;;;;;;;;5047108;28;20077;-71
2022/11/29 09:18:11;;;;;;;22.60;16.77;;;;;;;;;;5044264;28;20045;-71
2022/11/29 09:20:41;;;;;;;25.02;19.33;;;;;;;;;;5046243;28;20495;-71
2022/11/29 09:23:09;;;;;;;23.80;17.08;;;;;;;;;;5048075;28;20064;-71
2022/11/29 09:25:36;;;;;;;24.30;17.08;;;;;;;;;;5034201;28;20076;-71
2022/11/29 09:28:04;;;;;;;23.83;17.02;;;;;;;;;;5031072;28;20542;-72
2022/11/29 09:30:33;;;;;;;24.02;17.60;;;;;;;;;;5038746;28;20055;-72
2022/11/29 09:33:02;;;;;;;24.38;17.80;;;;;;;;;;5046886;28;20052;-72
2022/11/29 09:35:30;;;;;;;21.42;16.38;;;;;;;;;;5055236;28;20809;-73
2022/11/29 09:37:57;;;;;;;19.85;15.15;;;;;;;;;;5053749;28;20425;-73
2022/11/29 09:40:30;;;;;;;20.08;15.68;;;;;;;;;;5014741;28;20106;-74
2022/11/29 09:42:57;;;;;;;20.73;16.05;;;;;;;;;;5041245;28;20049;-73
2022/11/29 09:45:36;;;;;;;21.80;16.27;;;;;;;;;;5044698;28;20048;-74
2022/11/29 09:48:22;;;;;;;23.83;17.98;;;;;;;;;;5038300;28;20370;-73
2022/11/29 09:51:08;;;;;;;21.23;16.88;;;;;;;;;;5032829;28;20036;-73
2022/11/29 09:53:45;;;;;;;23.23;16.15;;;;;;;;;;5047678;28;20033;-73
2022/11/29 09:56:15;;;;;;;22.70;15.98;;;;;;;;;;5033724;28;20099;-72
2022/11/29 09:58:48;;;;;;;21.17;16.02;;;;;;;;;;5043371;28;20048;-72
2022/11/29 10:01:24;;;;;;;18.95;14.98;;;;;;;;;;5032187;28;20125;-73
2022/11/29 10:03:53;;;;;;;22.77;15.88;;;;;;;;;;5005492;28;20049;-72
2022/11/29 10:06:25;;;;;;;19.70;15.00;;;;;;;;;;5046600;28;20534;-73
2022/11/29 10:09:13;;;;;;;16.60;12.90;;;;;;;;;;5046428;28;20595;-72
2022/11/29 10:11:51;;;;;;;19.88;16.70;;;;;;;;;;5045477;28;20064;-73
2022/11/29 10:14:22;;;;;;;24.05;16.77;;;;;;;;;;5026776;28;20144;-73
2022/11/29 10:16:51;;;;;;;25.40;17.48;;;;;;;;;;5027462;28;20428;-73
2022/11/29 10:19:19;;;;;;;20.20;14.88;;;;;;;;;;5025242;28;20451;-74
2022/11/29 10:21:52;;;;;;;16.30;12.32;;;;;;;;;;5041315;28;20029;-72
2022/11/29 10:24:21;;;;;;;21.73;16.30;;;;;;;;;;5033842;28;20041;-73
2022/11/29 10:26:49;;;;;;;23.60;16.27;;;;;;;;;;5034142;28;20037;-73
2022/11/29 10:29:16;;;;;;;22.70;17.00;;;;;;;;;;5035127;28;20042;-73
2022/11/29 10:31:48;;;;;;;22.35;16.30;;;;;;;;;;5041100;28;20478;-73
2022/11/29 10:34:20;;;;;;;31.25;23.60;;;;;;;;;;5050840;28;20084;-72
2022/11/29 10:36:58;;;;;;;25.85;17.23;;;;;;;;;;5025713;28;20057;-73
2022/11/29 10:39:33;;;;;;;26.45;18.63;;;;;;;;;;5025904;28;20041;-73
2022/11/29 10:42:02;;;;;;;22.80;16.35;;;;;;;;;;5038407;28;20037;-73
2022/11/29 10:44:30;;;;;;;25.63;18.42;;;;;;;;;;5029525;28;20087;-73
2022/11/29 10:47:00;;;;;;;25.13;18.67;;;;;;;;;;5032726;28;20053;-72
2022/11/29 10:49:27;;;;;;;18.98;14.35;;;;;;;;;;5026702;28;20037;-73
2022/11/29 10:51:55;;;;;;;24.80;18.23;;;;;;;;;;5030549;28;20075;-73
2022/11/29 10:54:32;;;;;;;20.70;14.98;;;;;;;;;;5046091;28;20532;-73
2022/11/29 10:57:00;;;;;;;28.85;19.48;;;;;;;;;;5045732;28;20048;-74
2022/11/29 10:59:29;;;;;;;22.98;16.85;;;;;;;;;;5045304;28;20095;-72
2022/11/29 11:01:57;;;;;;;25.30;18.05;;;;;;;;;;5045751;28;20514;-73
2022/11/29 11:04:24;;;;;;;24.50;17.27;;;;;;;;;;5027989;28;20040;-73
2022/11/29 11:06:55;;;;;;;31.02;22.13;;;;;;;;;;5046302;28;20320;-73
2022/11/29 11:09:27;;;;;;;27.17;18.70;;;;;;;;;;5028162;28;20045;-71
2022/11/29 11:11:56;;;;;;;25.52;18.75;;;;;;;;;;5027300;28;20463;-72
2022/11/29 11:14:24;;;;;;;27.58;19.73;;;;;;;;;;5027383;28;20060;-72
2022/11/29 11:16:52;;;;;;;28.35;20.10;;;;;;;;;;5046015;28;20052;-71
2022/11/29 11:19:24;;;;;;;28.90;19.67;;;;;;;;;;5041534;28;20040;-72
2022/11/29 11:21:51;;;;;;;32.17;20.88;;;;;;;;;;5044069;28;20068;-71
2022/11/29 11:24:26;;;;;;;29.90;19.63;;;;;;;;;;5045651;28;20045;-71
2022/11/29 11:26:54;;;;;;;33.88;25.77;;;;;;;;;;5036123;28;20534;-72
2022/11/29 11:29:24;;;;;;;27.58;20.38;;;;;;;;;;5035122;28;20056;-71
2022/11/29 11:31:53;;;;;;;29.13;21.10;;;;;;;;;;5039671;28;20095;-71
2022/11/29 11:34:34;;;;;;;40.70;28.65;;;;;;;;;;5033587;28;20345;-72
2022/11/29 11:37:14;;;;;;;31.80;21.70;;;;;;;;;;5041887;28;20041;-72
2022/11/29 11:39:42;;;;;;;38.30;23.60;;;;;;;;;;5044577;28;20049;-73
2022/11/29 11:42:45;;;;;;;28.65;19.27;;;;;;;;;;5035094;28;20553;-72
2022/11/29 11:45:11;;;;;;;24.85;16.33;;;;;;;;;;5029357;28;20045;-72
2022/11/29 11:47:43;;;;;;;27.02;19.02;;;;;;;;;;5035393;28;20045;-72
2022/11/29 11:50:13;;;;;;;27.13;18.25;;;;;;;;;;5030587;28;20091;-72
2022/11/29 11:52:40;;;;;;;26.30;18.10;;;;;;;;;;5034584;28;20040;-72
2022/11/29 11:55:22;;;;;;;26.15;18.08;;;;;;;;;;5034458;28;20047;-72
2022/11/29 11:58:04;;;;;;;25.85;17.73;;;;;;;;;;5041221;28;20041;-72
2022/11/29 12:00:41;;;;;;;23.92;17.83;;;;;;;;;;5050733;28;20086;-72
2022/11/29 12:03:47;;;;;;;24.55;19.08;;;;;;;;;;5047470;28;20388;-72
2022/11/29 12:06:23;;;;;;;27.80;18.50;;;;;;;;;;5048753;28;20045;-72
2022/11/29 12:08:54;;;;;;;27.55;19.45;;;;;;;;;;5014166;28;20045;-73
2022/11/29 12:11:22;;;;;;;27.00;19.27;;;;;;;;;;5048939;28;20051;-73
2022/11/29 12:13:54;;;;;;;27.83;19.25;;;;;;;;;;5048798;28;20037;-72
2022/11/29 12:16:28;;;;;;;28.38;20.33;;;;;;;;;;5029411;28;20568;-73
2022/11/29 12:19:11;;;;;;;27.08;18.88;;;;;;;;;;5047875;28;20508;-72
2022/11/29 12:21:41;;;;;;;25.55;17.92;;;;;;;;;;5028461;28;20040;-72
2022/11/29 12:24:20;;;;;;;25.58;18.17;;;;;;;;;;5046322;28;20048;-72
2022/11/29 12:26:48;;;;;;;24.15;17.20;;;;;;;;;;5046159;28;20044;-72
2022/11/29 12:29:25;;;;;;;33.33;23.17;;;;;;;;;;5045132;28;20076;-73
2022/11/29 12:32:11;;;;;;;28.77;19.33;;;;;;;;;;5045303;28;20520;-72
2022/11/29 12:34:43;;;;;;;28.77;18.52;;;;;;;;;;5045385;28;20107;-72
2022/11/29 12:37:17;;;;;;;23.73;17.45;;;;;;;;;;5047841;28;20513;-73
2022/11/29 12:40:03;;;;;;;25.55;18.42;;;;;;;;;;5025019;28;20049;-73
2022/11/29 12:42:37;;;;;;;26.23;20.48;;;;;;;;;;5028131;28;20603;-72
2022/11/29 12:45:23;;;;;;;25.52;18.27;;;;;;;;;;5051306;28;20419;-73
2022/11/29 12:48:12;;;;;;;23.95;17.23;;;;;;;;;;5049289;28;20041;-73
2022/11/29 12:50:54;;;;;;;23.48;16.90;;;;;;;;;;5048087;28;20486;-73
2022/11/29 12:53:21;;;;;;;;;;;;;;;;;;5047746;28;20386;-73
2022/11/29 12:55:53;;;;;;;21.70;16.25;;;;;;;;;;5047766;28;20011;-73
2022/11/29 12:58:24;;;;;;;22.58;16.23;;;;;;;;;;5029896;28;20055;-73
2022/11/29 13:00:54;;;;;;;21.45;15.00;;;;;;;;;;5029931;28;20049;-73
2022/11/29 13:03:25;;;;;;;22.00;15.20;;;;;;;;;;5046647;28;20060;-73
2022/11/29 13:06:02;;;;;;;21.73;15.13;;;;;;;;;;5013821;28;20052;-73
2022/11/29 13:08:32;;;;;;;18.98;14.82;;;;;;;;;;5030106;28;20542;-75
2022/11/29 13:11:13;;;;;;;22.77;15.43;;;;;;;;;;5047237;28;20044;-73
2022/11/29 13:13:42;;;;;;;20.00;15.50;;;;;;;;;;5047590;28;20053;-74
2022/11/29 13:16:09;;;;;;;18.90;14.30;;;;;;;;;;5029301;28;20041;-73
2022/11/29 13:18:59;;;;;;;23.10;16.20;;;;;;;;;;5047644;28;20105;-72
2022/11/29 13:21:36;;;;;;;23.95;17.38;;;;;;;;;;5047225;28;20505;-73
2022/11/29 13:24:11;;;;;;;26.05;17.77;;;;;;;;;;5029723;28;20415;-73
2022/11/29 13:26:39;;;;;;;22.00;17.38;;;;;;;;;;5029724;28;20052;-74
2022/11/29 13:29:09;;;;;;;24.70;17.88;;;;;;;;;;5047650;28;20099;-74
2022/11/29 13:31:38;;;;;;;21.88;16.63;;;;;;;;;;5046700;28;20048;-74
2022/11/29 13:34:25;;;;;;;22.85;16.48;;;;;;;;;;5030496;28;20037;-74
2022/11/29 13:37:07;;;;;;;23.60;16.73;;;;;;;;;;5031112;28;20464;-74
2022/11/29 13:39:46;;;;;;;24.80;17.77;;;;;;;;;;5048419;28;20040;-73
2022/11/29 13:42:13;;;;;;;22.40;16.60;;;;;;;;;;5047816;28;20044;-73
2022/11/29 13:44:44;;;;;;;22.40;16.08;;;;;;;;;;5047480;28;20083;-74
2022/11/29 13:47:13;;;;;;;24.05;17.15;;;;;;;;;;5047366;28;20044;-73
2022/11/29 13:49:53;;;;;;;25.73;18.20;;;;;;;;;;5047213;28;20053;-73
2022/11/29 13:52:39;;;;;;;22.90;17.00;;;;;;;;;;5027297;28;20094;-73
2022/11/29 13:55:17;;;;;;;20.55;15.77;;;;;;;;;;5041616;28;20403;-73
2022/11/29 13:57:50;;;;;;;22.95;17.42;;;;;;;;;;5036350;28;20362;-74
2022/11/29 14:00:43;;;;;;;22.73;16.08;;;;;;;;;;5019733;28;20033;-74
2022/11/29 14:03:23;;;;;;;24.13;17.33;;;;;;;;;;5045679;28;20063;-74
2022/11/29 14:06:09;;;;;;;23.38;16.33;;;;;;;;;;5028638;28;20049;-73
2022/11/29 14:08:39;;;;;;;26.10;18.30;;;;;;;;;;5046974;28;20040;-75
2022/11/29 14:11:31;;;;;;;25.48;16.67;;;;;;;;;;5046161;28;20044;-74
2022/11/29 14:14:04;;;;;;;22.90;15.85;;;;;;;;;;5045935;28;20551;-73
2022/11/29 14:16:41;;;;;;;22.05;16.85;;;;;;;;;;5045077;28;20094;-76
2022/11/29 14:19:11;;;;;;;28.67;17.45;;;;;;;;;;5047072;28;20091;-74
2022/11/29 14:22:00;;;;;;;24.55;17.83;;;;;;;;;;5039398;28;20045;-74
2022/11/29 14:27:11;;;;;;;27.23;18.77;;;;;;;;;;5044833;28;20052;-75
2022/11/29 14:29:53;;;;;;;30.20;19.25;;;;;;;;;;5046879;28;20055;-74
2022/11/29 14:32:24;;;;;;;27.75;17.30;;;;;;;;;;5044961;28;20055;-73
2022/11/29 14:34:57;;;;;;;28.83;19.38;;;;;;;;;;5023669;28;20041;-74
2022/11/29 14:37:37;;;;;;;31.10;20.25;;;;;;;;;;5029033;28;20048;-75
2022/11/29 14:40:15;;;;;;;33.25;18.73;;;;;;;;;;5023706;28;20056;-75
2022/11/29 14:42:50;;;;;;;28.33;19.65;;;;;;;;;;5058625;28;20071;-75
2022/11/29 14:45:28;;;;;;;30.15;19.30;;;;;;;;;;5048521;28;20046;-75
2022/11/29 14:47:56;;;;;;;25.88;17.60;;;;;;;;;;5065705;28;20530;-74
2022/11/29 14:50:29;;;;;;;26.42;18.58;;;;;;;;;;5046637;28;20102;-75
2022/11/29 14:52:56;;;;;;;28.17;19.08;;;;;;;;;;5046100;28;20048;-74
2022/11/29 14:55:23;;;;;;;25.40;18.38;;;;;;;;;;5046092;28;20226;-75
2022/11/29 14:57:54;;;;;;;26.42;18.30;;;;;;;;;;5058157;28;20127;-75
2022/11/29 15:00:23;;;;;;;34.03;22.90;;;;;;;;;;5065622;28;20450;-75
2022/11/29 15:02:53;;;;;;;33.30;19.58;;;;;;;;;;5065666;28;20045;-75
2022/11/29 15:05:23;;;;;;;30.23;19.20;;;;;;;;;;5065230;28;20044;-75
2022/11/29 15:08:09;;;;;;;27.80;18.65;;;;;;;;;;5048087;28;20056;-75
2022/11/29 15:10:42;;;;;;;34.22;22.00;;;;;;;;;;5065996;28;20083;-74
2022/11/29 15:13:12;;;;;;;36.45;22.10;;;;;;;;;;5065534;28;20102;-75